createdAt,value
2018-11-11T00:01:08.090Z,92583.98
2018-11-11T00:03:45.366Z,92587.47
2018-11-11T00:06:22.723Z,92583.63
2018-11-11T00:08:59.409Z,92581.96
2018-11-11T00:11:36.774Z,92582.14
2018-11-11T00:14:14.205Z,92592.45
2018-11-11T00:16:53.952Z,92591.70
2018-11-11T00:19:31.878Z,92589.86
2018-11-11T00:22:08.276Z,92593.70
2018-11-11T00:24:44.832Z,92596.31
2018-11-11T00:27:21.968Z,92601.95
2018-11-11T00:29:59.821Z,92591.86
2018-11-11T00:32:36.358Z,92588.85
2018-11-11T00:35:13.333Z,92594.52
2018-11-11T00:37:50.009Z,92590.92
2018-11-11T00:40:25.952Z,92586.56
2018-11-11T00:43:01.753Z,92586.31
2018-11-11T00:45:37.636Z,92590.55
2018-11-11T00:48:13.490Z,92590.05
2018-11-11T00:50:49.789Z,92597.36
2018-11-11T00:53:25.720Z,92590.27
2018-11-11T00:56:01.520Z,92599.00
2018-11-11T00:58:37.461Z,92598.88
2018-11-11T01:01:13.376Z,92599.73
2018-11-11T01:03:49.379Z,92596.84
2018-11-11T01:06:25.236Z,92595.64
2018-11-11T01:09:01.059Z,92597.80
2018-11-11T01:11:36.863Z,92592.50
2018-11-11T01:14:12.640Z,92595.71
2018-11-11T01:16:48.524Z,92592.29
2018-11-11T01:19:24.836Z,92589.28
2018-11-11T01:22:00.548Z,92592.27
2018-11-11T01:24:36.500Z,92598.16
2018-11-11T01:27:18.105Z,92593.70
2018-11-11T01:29:53.945Z,92594.03
2018-11-11T01:32:29.860Z,92594.81
2018-11-11T01:35:08.713Z,92595.56
2018-11-11T01:37:45.061Z,92596.11
2018-11-11T01:40:20.979Z,92592.03
2018-11-11T01:42:56.718Z,92595.04
2018-11-11T01:45:32.503Z,92598.16
2018-11-11T01:48:08.271Z,92599.84
2018-11-11T01:50:44.200Z,92600.81
2018-11-11T01:53:20.116Z,92594.14
2018-11-11T01:55:55.993Z,92599.31
2018-11-11T01:58:31.940Z,92596.06
2018-11-11T02:01:08.322Z,92593.68
2018-11-11T02:03:44.268Z,92596.41
2018-11-11T02:06:20.157Z,92599.87
2018-11-11T02:08:56.044Z,92600.81
2018-11-11T02:11:31.941Z,92601.03
2018-11-11T02:14:08.133Z,92599.73
2018-11-11T02:16:43.832Z,92606.11
2018-11-11T02:19:19.668Z,92604.26
2018-11-11T02:21:55.504Z,92608.80
2018-11-11T02:24:31.276Z,92608.19
2018-11-11T02:27:07.642Z,92607.95
2018-11-11T02:29:43.500Z,92607.72
2018-11-11T02:32:19.565Z,92603.88
2018-11-11T02:34:55.397Z,92609.13
2018-11-11T02:37:31.328Z,92611.30
2018-11-11T02:40:09.189Z,92610.73
2018-11-11T02:42:45.374Z,92618.25
2018-11-11T02:45:21.321Z,92617.14
2018-11-11T02:47:57.220Z,92624.37
2018-11-11T02:50:33.224Z,92625.45
2018-11-11T02:53:09.069Z,92622.33
2018-11-11T02:55:44.787Z,92619.17
2018-11-11T02:58:20.652Z,92620.53
2018-11-11T03:00:56.511Z,92622.02
2018-11-11T03:03:32.464Z,92625.08
2018-11-11T03:06:08.190Z,92623.77
2018-11-11T03:08:44.877Z,92628.66
2018-11-11T03:11:21.109Z,92629.50
2018-11-11T03:13:57.229Z,92633.84
2018-11-11T03:16:32.947Z,92628.20
2018-11-11T03:19:09.360Z,92626.58
2018-11-11T03:21:45.130Z,92627.05
2018-11-11T03:24:21.082Z,92632.57
2018-11-11T03:26:56.818Z,92622.63
2018-11-11T03:29:32.690Z,92623.98
2018-11-11T03:32:08.607Z,92634.43
2018-11-11T03:34:44.448Z,92632.77
2018-11-11T03:37:20.311Z,92636.06
2018-11-11T03:39:56.933Z,92641.14
2018-11-11T03:42:32.699Z,92645.16
2018-11-11T03:45:21.689Z,92644.88
2018-11-11T03:47:57.569Z,92647.05
2018-11-11T03:50:33.537Z,92650.52
2018-11-11T03:53:09.320Z,92639.44
2018-11-11T03:55:45.245Z,92645.53
2018-11-11T03:58:21.376Z,92637.30
2018-11-11T04:00:57.219Z,92632.53
2018-11-11T04:03:33.030Z,92633.56
2018-11-11T04:06:08.926Z,92634.19
2018-11-11T04:08:45.328Z,92632.64
2018-11-11T04:11:21.200Z,92635.05
2018-11-11T04:13:57.122Z,92629.79
2018-11-11T04:16:33.205Z,92622.72
2018-11-11T04:19:09.648Z,92630.91
2018-11-11T04:21:45.519Z,92634.01
2018-11-11T04:24:21.293Z,92640.16
2018-11-11T04:26:57.130Z,92636.00
2018-11-11T04:29:32.992Z,92638.03
2018-11-11T04:32:09.336Z,92645.84
2018-11-11T04:34:45.149Z,92645.42
2018-11-11T04:37:20.985Z,92643.45
2018-11-11T04:39:56.976Z,92640.11
2018-11-11T04:42:32.758Z,92650.27
2018-11-11T04:45:10.213Z,92653.58
2018-11-11T04:47:46.653Z,92659.00
2018-11-11T04:50:22.493Z,92657.35
2018-11-11T04:52:58.338Z,92660.67
2018-11-11T04:55:34.089Z,92658.47
2018-11-11T04:58:10.077Z,92653.36
2018-11-11T05:00:45.913Z,92653.75
2018-11-11T05:03:21.770Z,92651.73
2018-11-11T05:05:57.461Z,92659.45
2018-11-11T05:08:33.392Z,92657.72
2018-11-11T05:11:09.343Z,92659.34
2018-11-11T05:13:45.209Z,92662.84
2018-11-11T05:16:21.074Z,92670.45
2018-11-11T05:18:56.939Z,92669.86
2018-11-11T05:21:32.693Z,92672.84
2018-11-11T05:24:08.668Z,92670.52
2018-11-11T05:26:44.525Z,92681.99
2018-11-11T05:29:20.478Z,92689.60
2018-11-11T05:31:56.247Z,92682.96
2018-11-11T05:34:32.034Z,92684.91
2018-11-11T05:37:07.847Z,92685.39
2018-11-11T05:39:43.866Z,92688.15
2018-11-11T05:42:19.851Z,92691.39
2018-11-11T05:44:55.768Z,92692.09
2018-11-11T05:47:31.693Z,92690.86
2018-11-11T05:50:09.160Z,92702.32
2018-11-11T05:52:46.249Z,92704.34
2018-11-11T05:55:22.270Z,92702.91
2018-11-11T05:57:58.035Z,92702.65
2018-11-11T06:00:34.016Z,92706.59
2018-11-11T06:03:11.145Z,92709.30
2018-11-11T06:05:47.937Z,92707.55
2018-11-11T06:08:23.748Z,92706.01
2018-11-11T06:10:59.738Z,92707.48
2018-11-11T06:13:35.584Z,92701.69
2018-11-11T06:16:11.440Z,92707.64
2018-11-11T06:18:47.332Z,92711.64
2018-11-11T06:21:23.253Z,92706.87
2018-11-11T06:23:59.240Z,92711.58
2018-11-11T06:26:35.226Z,92709.42
2018-11-11T06:29:10.951Z,92712.95
2018-11-11T06:31:47.020Z,92708.47
2018-11-11T06:34:22.981Z,92712.43
2018-11-11T06:36:59.304Z,92713.00
2018-11-11T06:39:35.050Z,92715.74
2018-11-11T06:42:11.228Z,92721.09
2018-11-11T06:44:47.087Z,92717.55
2018-11-11T06:47:22.977Z,92726.45
2018-11-11T06:49:58.911Z,92729.58
2018-11-11T06:52:34.767Z,92728.55
2018-11-11T06:55:10.756Z,92729.13
2018-11-11T06:57:46.724Z,92727.84
2018-11-11T07:00:22.631Z,92727.28
2018-11-11T07:03:09.154Z,92740.61
2018-11-11T07:05:44.886Z,92736.59
2018-11-11T07:08:21.203Z,92734.19
2018-11-11T07:10:56.862Z,92736.45
2018-11-11T07:13:32.756Z,92735.79
2018-11-11T07:16:08.678Z,92739.75
2018-11-11T07:18:45.492Z,92731.67
2018-11-11T07:21:22.169Z,92735.08
2018-11-11T07:23:57.946Z,92736.38
2018-11-11T07:26:33.860Z,92735.42
2018-11-11T07:29:09.846Z,92742.06
2018-11-11T07:31:45.563Z,92743.17
2018-11-11T07:34:21.541Z,92736.78
2018-11-11T07:36:57.318Z,92736.63
2018-11-11T07:39:33.258Z,92728.45
2018-11-11T07:47:05.883Z,92724.42
2018-11-11T07:49:42.004Z,92731.80
2018-11-11T07:52:18.355Z,92733.10
2018-11-11T07:55:00.769Z,92729.02
2018-11-11T07:57:37.047Z,92731.72
2018-11-11T08:00:14.273Z,92726.98
2018-11-11T08:02:50.054Z,92727.97
2018-11-11T08:05:25.927Z,92729.88
2018-11-11T08:08:01.963Z,92725.78
2018-11-11T08:10:48.747Z,92728.84
2018-11-11T08:13:24.847Z,92731.74
2018-11-11T08:16:00.761Z,92728.68
2018-11-11T08:18:42.693Z,92727.22
2018-11-11T08:21:18.598Z,92732.29
2018-11-11T08:23:54.540Z,92734.91
2018-11-11T08:26:30.468Z,92739.48
2018-11-11T08:29:06.805Z,92733.84
2018-11-11T08:31:43.201Z,92735.58
2018-11-11T08:34:19.084Z,92736.05
2018-11-11T08:36:54.948Z,92731.31
2018-11-11T08:39:31.006Z,92734.38
2018-11-11T08:42:06.849Z,92733.89
2018-11-11T08:44:42.828Z,92736.76
2018-11-11T08:47:19.203Z,92729.08
2018-11-11T08:49:55.116Z,92733.67
2018-11-11T08:52:31.060Z,92728.27
2018-11-11T08:55:07.222Z,92732.70
2018-11-11T08:57:43.036Z,92738.92
2018-11-11T09:00:19.081Z,92736.80
2018-11-11T09:02:54.794Z,92736.45
2018-11-11T09:05:30.817Z,92737.26
2018-11-11T09:08:07.181Z,92731.83
2018-11-11T09:10:43.060Z,92731.30
2018-11-11T09:13:18.780Z,92731.95
2018-11-11T09:15:54.711Z,92725.76
2018-11-11T09:18:30.515Z,92724.95
2018-11-11T09:21:07.358Z,92722.98
2018-11-11T09:23:43.311Z,92719.39
2018-11-11T09:26:19.475Z,92719.94
2018-11-11T09:28:55.387Z,92719.19
2018-11-11T09:31:31.358Z,92718.98
2018-11-11T09:34:07.296Z,92712.44
2018-11-11T09:36:43.233Z,92710.98
2018-11-11T09:39:19.756Z,92710.72
2018-11-11T09:41:55.659Z,92714.91
2018-11-11T09:44:31.552Z,92719.20
2018-11-11T09:47:13.246Z,92707.73
2018-11-11T09:49:49.096Z,92702.26
2018-11-11T09:52:24.919Z,92692.56
2018-11-11T09:55:00.616Z,92693.98
2018-11-11T09:57:37.445Z,92692.60
2018-11-11T10:00:15.863Z,92683.70
2018-11-11T10:02:57.216Z,92687.44
2018-11-11T10:05:38.213Z,92685.47
2018-11-11T10:10:21.496Z,92683.48
2018-11-11T10:13:05.238Z,92678.95
2018-11-11T10:15:51.284Z,92671.91
2018-11-11T10:18:32.707Z,92676.19
2018-11-11T10:21:13.743Z,92678.56
2018-11-11T10:23:53.519Z,92670.72
2018-11-11T10:26:34.739Z,92671.94
2018-11-11T10:29:16.775Z,92669.13
2018-11-11T10:32:07.630Z,92667.09
2018-11-11T10:34:50.492Z,92665.80
2018-11-11T10:37:29.633Z,92656.57
2018-11-11T10:42:12.866Z,92659.72
2018-11-11T10:45:03.050Z,92653.91
2018-11-11T10:47:48.917Z,92652.88
2018-11-11T10:50:32.453Z,92656.98
2018-11-11T10:53:08.660Z,92648.73
2018-11-11T10:55:44.474Z,92653.08
2018-11-11T10:58:20.305Z,92643.82
2018-11-11T11:01:01.358Z,92647.38
2018-11-11T11:03:39.809Z,92643.56
2018-11-11T11:06:15.865Z,92645.98
2018-11-11T11:08:56.922Z,92646.48
2018-11-11T11:11:32.835Z,92652.11
2018-11-11T11:14:08.785Z,92642.49
2018-11-11T11:16:44.800Z,92639.50
2018-11-11T11:19:20.591Z,92637.65
2018-11-11T11:21:56.340Z,92644.50
2018-11-11T11:24:32.258Z,92639.08
2018-11-11T11:27:08.187Z,92633.41
2018-11-11T11:29:44.051Z,92639.00
2018-11-11T11:32:20.019Z,92643.00
2018-11-11T11:34:55.708Z,92634.73
2018-11-11T11:37:31.521Z,92627.59
2018-11-11T11:40:08.506Z,92629.08
2018-11-11T11:42:44.238Z,92620.73
2018-11-11T11:45:20.214Z,92622.30
2018-11-11T11:47:56.650Z,92624.43
2018-11-11T11:50:32.596Z,92626.36
2018-11-11T11:53:08.702Z,92624.75
2018-11-11T11:55:44.576Z,92628.67
2018-11-11T11:58:26.033Z,92625.05
2018-11-11T12:01:01.997Z,92622.63
2018-11-11T12:03:37.974Z,92626.05
2018-11-11T12:06:13.737Z,92623.61
2018-11-11T12:08:49.568Z,92620.16
2018-11-11T12:11:25.626Z,92621.80
2018-11-11T12:14:01.472Z,92620.16
2018-11-11T12:16:37.432Z,92619.89
2018-11-11T12:19:14.010Z,92620.77
2018-11-11T12:21:49.880Z,92616.28
2018-11-11T12:24:25.776Z,92621.27
2018-11-11T12:27:01.573Z,92623.19
2018-11-11T12:29:37.489Z,92625.22
2018-11-11T12:32:13.287Z,92616.28
2018-11-11T12:34:49.226Z,92619.09
2018-11-11T12:37:25.145Z,92623.87
2018-11-11T12:40:01.101Z,92625.77
2018-11-11T12:42:36.960Z,92621.88
2018-11-11T12:45:13.362Z,92625.44
2018-11-11T12:47:49.125Z,92621.33
2018-11-11T12:50:24.977Z,92623.94
2018-11-11T12:53:00.976Z,92617.55
2018-11-11T12:55:37.008Z,92616.70
2018-11-11T12:58:08.275Z,92621.84
2018-11-11T13:00:39.142Z,92618.38
2018-11-11T13:03:09.934Z,92616.80
2018-11-11T13:05:40.889Z,92618.30
2018-11-11T13:08:11.673Z,92619.63
2018-11-11T13:10:42.555Z,92636.63
2018-11-11T13:13:13.349Z,92630.81
2018-11-11T13:15:44.179Z,92626.96
2018-11-11T13:18:15.884Z,92636.33
2018-11-11T13:20:46.867Z,92639.63
2018-11-11T13:23:17.652Z,92638.74
2018-11-11T13:25:48.526Z,92634.52
2018-11-11T13:28:19.353Z,92638.61
2018-11-11T13:30:50.235Z,92640.44
2018-11-11T13:33:21.003Z,92639.88
2018-11-11T13:35:51.970Z,92645.50
2018-11-11T13:38:22.876Z,92646.81
2018-11-11T13:40:53.876Z,92649.42
2018-11-11T13:43:24.646Z,92650.34
2018-11-11T13:45:55.422Z,92648.05
2018-11-11T13:48:26.252Z,92645.59
2018-11-11T13:50:57.572Z,92649.34
2018-11-11T13:53:28.326Z,92651.33
2018-11-11T13:55:59.220Z,92652.36
2018-11-11T13:58:30.021Z,92653.75
2018-11-11T14:01:00.911Z,92649.22
2018-11-11T14:03:31.719Z,92655.66
2018-11-11T14:06:02.917Z,92654.84
2018-11-11T14:08:33.736Z,92661.08
2018-11-11T14:11:04.645Z,92659.29
2018-11-11T14:13:35.920Z,92663.19
2018-11-11T14:16:07.122Z,92665.83
2018-11-11T14:18:38.106Z,92662.87
2018-11-11T14:21:09.146Z,92666.55
2018-11-11T14:23:40.002Z,92670.06
2018-11-11T14:26:11.200Z,92670.27
2018-11-11T14:28:42.259Z,92668.62
2018-11-11T14:31:13.409Z,92676.09
2018-11-11T14:33:44.217Z,92679.39
2018-11-11T14:36:15.389Z,92683.91
2018-11-11T14:38:46.153Z,92684.77
2018-11-11T14:41:17.800Z,92691.48
2018-11-11T14:43:48.620Z,92687.20
2018-11-11T14:46:19.606Z,92687.73
2018-11-11T14:48:50.430Z,92690.98
2018-11-11T14:51:21.325Z,92692.51
2018-11-11T14:53:52.162Z,92695.87
2018-11-11T14:56:23.044Z,92695.28
2018-11-11T14:58:54.100Z,92703.44
2018-11-11T15:01:25.076Z,92697.09
2018-11-11T15:03:55.976Z,92704.98
2018-11-11T15:06:27.168Z,92701.68
2018-11-11T15:08:57.993Z,92703.98
2018-11-11T15:11:28.848Z,92706.89
2018-11-11T15:13:59.646Z,92703.60
2018-11-11T15:16:30.475Z,92706.50
2018-11-11T15:19:02.677Z,92710.98
2018-11-11T15:21:33.795Z,92717.19
2018-11-11T15:24:04.696Z,92715.02
2018-11-11T15:26:35.493Z,92713.46
2018-11-11T15:29:06.417Z,92717.92
2018-11-11T15:31:38.704Z,92719.38
2018-11-11T15:34:09.508Z,92723.82
2018-11-11T15:36:40.405Z,92730.45
2018-11-11T15:39:12.021Z,92734.44
2018-11-11T15:41:42.912Z,92736.18
2018-11-11T15:44:17.116Z,92735.77
2018-11-11T15:46:48.018Z,92734.25
2018-11-11T15:49:18.967Z,92742.31
2018-11-11T15:51:49.919Z,92750.45
2018-11-11T15:55:44.719Z,92750.91
2018-11-11T15:58:15.630Z,92749.47
2018-11-11T16:00:46.420Z,92750.53
2018-11-11T16:03:17.267Z,92752.94
2018-11-11T16:05:48.153Z,92749.37
2018-11-11T16:08:19.043Z,92749.48
2018-11-11T16:10:49.857Z,92751.38
2018-11-11T16:13:20.674Z,92753.34
2018-11-11T16:15:51.570Z,92755.83
2018-11-11T16:18:22.398Z,92759.98
2018-11-11T16:20:53.299Z,92762.08
2018-11-11T16:23:24.290Z,92768.85
2018-11-11T16:25:55.309Z,92773.52
2018-11-11T16:28:26.130Z,92775.87
2018-11-11T16:30:56.905Z,92776.69
2018-11-11T16:33:27.794Z,92788.88
2018-11-11T16:35:58.769Z,92793.41
2018-11-11T16:38:30.049Z,92799.04
2018-11-11T16:41:01.331Z,92798.45
2018-11-11T16:43:32.233Z,92804.72
2018-11-11T16:46:02.990Z,92804.63
2018-11-11T16:48:33.804Z,92807.80
2018-11-11T16:51:05.267Z,92808.93
2018-11-11T16:53:36.375Z,92815.71
2018-11-11T16:56:07.348Z,92819.30
2018-11-11T16:58:38.204Z,92817.94
2018-11-11T17:01:09.038Z,92820.61
2018-11-11T17:03:40.096Z,92817.02
2018-11-11T17:06:11.452Z,92814.16
2018-11-11T17:08:42.433Z,92812.52
2018-11-11T17:11:13.213Z,92820.31
2018-11-11T17:13:46.084Z,92829.16
2018-11-11T17:16:17.230Z,92828.17
2018-11-11T17:18:48.660Z,92829.22
2018-11-11T17:21:19.634Z,92833.69
2018-11-11T17:23:50.673Z,92833.07
2018-11-11T17:26:21.832Z,92833.18
2018-11-11T17:28:52.765Z,92832.42
2018-11-11T17:31:23.592Z,92834.53
2018-11-11T17:33:54.495Z,92828.92
2018-11-11T17:36:25.332Z,92836.97
2018-11-11T17:38:56.653Z,92843.31
2018-11-11T17:41:27.683Z,92843.94
2018-11-11T17:43:59.156Z,92847.53
2018-11-11T17:46:30.496Z,92845.88
2018-11-11T17:49:02.768Z,92848.66
2018-11-11T17:51:33.886Z,92852.65
2018-11-11T17:54:05.131Z,92848.77
2018-11-11T17:56:36.182Z,92854.06
2018-11-11T17:59:08.060Z,92861.73
2018-11-11T18:01:38.957Z,92857.48
2018-11-11T18:04:09.924Z,92861.73
2018-11-11T18:06:41.209Z,92866.16
2018-11-11T18:09:12.542Z,92868.72
2018-11-11T18:11:43.454Z,92866.95
2018-11-11T18:14:14.322Z,92866.97
2018-11-11T18:16:45.436Z,92873.77
2018-11-11T18:19:22.486Z,92876.38
2018-11-11T18:21:54.026Z,92882.36
2018-11-11T18:24:24.933Z,92884.42
2018-11-11T18:27:03.237Z,92877.17
2018-11-11T18:29:36.296Z,92884.59
2018-11-11T18:32:09.747Z,92885.33
2018-11-11T18:34:43.149Z,92885.45
2018-11-11T18:37:14.641Z,92887.02
2018-11-11T18:39:46.076Z,92891.95
2018-11-11T18:42:16.892Z,92896.42
2018-11-11T18:44:49.763Z,92900.76
2018-11-11T18:47:22.068Z,92905.98
2018-11-11T18:49:53.950Z,92906.77
2018-11-11T18:52:34.792Z,92908.87
2018-11-11T18:55:09.940Z,92907.20
2018-11-11T18:57:41.198Z,92908.05
2018-11-11T19:00:15.189Z,92906.28
2018-11-11T19:02:47.401Z,92906.61
2018-11-11T19:05:19.219Z,92917.44
2018-11-11T19:07:51.961Z,92916.09
2018-11-11T19:10:25.521Z,92920.90
2018-11-11T19:12:59.738Z,92922.94
2018-11-11T19:15:30.929Z,92930.47
2018-11-11T19:18:01.718Z,92931.45
2018-11-11T19:20:34.102Z,92940.02
2018-11-11T19:23:05.477Z,92939.91
2018-11-11T19:25:39.741Z,92944.19
2018-11-11T19:28:10.615Z,92943.02
2018-11-11T19:30:41.512Z,92945.75
2018-11-11T19:33:13.057Z,92941.30
2018-11-11T19:35:44.093Z,92940.44
2018-11-11T19:38:14.954Z,92939.95
2018-11-11T19:40:46.204Z,92945.20
2018-11-11T19:43:17.213Z,92950.16
2018-11-11T19:45:48.732Z,92955.80
2018-11-11T19:48:19.905Z,92957.67
2018-11-11T19:50:51.364Z,92959.25
2018-11-11T19:53:22.529Z,92956.13
2018-11-11T19:55:53.400Z,92956.78
2018-11-11T19:58:24.304Z,92953.25
2018-11-11T20:00:55.621Z,92960.23
2018-11-11T20:03:26.689Z,92957.58
2018-11-11T20:05:58.030Z,92965.61
2018-11-11T20:08:29.095Z,92965.09
2018-11-11T20:10:59.998Z,92965.75
2018-11-11T20:13:30.827Z,92963.03
2018-11-11T20:16:03.130Z,92963.98
2018-11-11T20:18:39.954Z,92964.70
2018-11-11T20:21:14.492Z,92967.35
2018-11-11T20:23:46.292Z,92968.20
2018-11-11T20:26:23.116Z,92970.60
2018-11-11T20:28:56.481Z,92971.56
2018-11-11T20:31:28.855Z,92973.16
2018-11-11T20:33:59.992Z,92978.92
2018-11-11T20:36:31.366Z,92981.57
2018-11-11T20:39:02.183Z,92983.22
2018-11-11T20:41:33.059Z,92984.94
2018-11-11T20:44:03.888Z,92984.10
2018-11-11T20:46:35.305Z,92989.14
2018-11-11T20:49:06.237Z,92980.55
2018-11-11T20:51:37.096Z,92985.26
2018-11-11T20:54:10.570Z,92979.75
2018-11-11T20:56:41.790Z,92981.81
2018-11-11T20:59:17.810Z,92978.66
2018-11-11T21:01:53.819Z,92980.12
2018-11-11T21:04:29.730Z,92981.23
2018-11-11T21:07:05.713Z,92977.59
2018-11-11T21:09:41.974Z,92972.29
2018-11-11T21:12:17.894Z,92973.61
2018-11-11T21:14:56.359Z,92977.59
2018-11-11T21:17:32.641Z,92982.42
2018-11-11T21:20:10.781Z,92979.69
2018-11-11T21:22:46.499Z,92977.05
2018-11-11T21:25:25.654Z,92987.96
2018-11-11T21:28:01.670Z,92983.09
2018-11-11T21:30:37.533Z,92982.77
2018-11-11T21:33:13.416Z,92979.41
2018-11-11T21:35:49.305Z,92978.24
2018-11-11T21:38:26.443Z,92984.91
2018-11-11T21:41:02.545Z,92984.09
2018-11-11T21:43:38.460Z,92993.43
2018-11-11T21:46:14.243Z,92990.98
2018-11-11T21:48:50.154Z,92995.38
2018-11-11T21:51:25.930Z,92996.34
2018-11-11T21:54:01.863Z,92998.38
2018-11-11T21:56:37.854Z,92999.47
2018-11-11T21:59:13.731Z,93004.87
2018-11-11T22:01:49.868Z,93003.31
2018-11-11T22:04:26.166Z,93005.45
2018-11-11T22:07:01.957Z,93013.28
2018-11-11T22:09:37.888Z,93012.52
2018-11-11T22:12:14.049Z,93012.47
2018-11-11T22:14:49.999Z,93013.72
2018-11-11T22:17:25.764Z,93017.67
2018-11-11T22:20:01.750Z,93021.12
2018-11-11T22:22:37.683Z,93025.82
2018-11-11T22:25:13.498Z,93019.64
2018-11-11T22:27:49.301Z,93013.42
2018-11-11T22:30:25.709Z,93014.01
2018-11-11T22:33:01.586Z,93016.60
2018-11-11T22:35:37.428Z,93018.17
2018-11-11T22:38:13.403Z,93011.35
2018-11-11T22:40:49.330Z,93015.33
2018-11-11T22:43:25.188Z,93022.75
2018-11-11T22:46:00.985Z,93017.10
2018-11-11T22:48:36.874Z,93022.45
2018-11-11T22:51:12.705Z,93021.70
2018-11-11T22:53:48.441Z,93020.72
2018-11-11T22:56:24.189Z,93025.11
2018-11-11T22:59:00.067Z,93027.98
2018-11-11T23:01:35.917Z,93022.59
2018-11-11T23:04:11.667Z,93021.33
2018-11-11T23:06:47.589Z,93022.22
2018-11-11T23:09:23.326Z,93021.77
2018-11-11T23:11:59.270Z,93023.03
2018-11-11T23:14:35.089Z,93025.34
2018-11-11T23:17:10.876Z,93023.01
2018-11-11T23:19:46.898Z,93021.45
2018-11-11T23:22:23.204Z,93023.55
2018-11-11T23:24:59.130Z,93024.53
2018-11-11T23:27:35.037Z,93021.23
2018-11-11T23:30:16.657Z,93027.87
2018-11-11T23:32:52.894Z,93026.75
2018-11-11T23:35:28.724Z,93029.27
2018-11-11T23:38:04.682Z,93029.77
2018-11-11T23:40:40.467Z,93029.61
2018-11-11T23:43:16.275Z,93036.76
2018-11-11T23:45:52.133Z,93043.70
2018-11-11T23:48:28.108Z,93045.45
2018-11-11T23:51:03.929Z,93046.42
2018-11-11T23:53:39.560Z,93055.11
2018-11-11T23:56:15.431Z,93055.05
2018-11-11T23:58:51.441Z,93062.70
